Terminal Aerodrome Forecast
Issued by NWS

Current Version | Previous Version | Text Only | Print | Product List | Glossary On
Versions: 1 2 3 4 5 6 7 8 9 10 11 12 13 14 15 16 17 18
000
FTUS43 KICT 252034 AAB
TAFRSL
TAF AMD
KRSL 252034Z 2521/2618 35013KT P6SM BKN035
     FM260100 03004KT P6SM FEW250
     FM260500 19004KT P6SM FEW250
     FM261600 29013KT P6SM SCT200=

USA.gov is the U.S. government's official web portal to all federal, state and local government web resources and services.